createdAt,value
2023-04-14T00:00:34.936Z,16.83
2023-04-14T00:01:34.947Z,16.82
2023-04-14T00:02:35.025Z,16.83
2023-04-14T00:03:35.033Z,16.82
2023-04-14T00:04:35.077Z,16.83
2023-04-14T00:05:34.877Z,16.82
2023-04-14T00:06:34.861Z,16.81
2023-04-14T00:07:34.852Z,16.83
2023-04-14T00:08:34.860Z,16.83
2023-04-14T00:09:34.837Z,16.83
2023-04-14T00:10:34.857Z,16.83
2023-04-14T00:11:34.808Z,16.82
2023-04-14T00:12:34.827Z,16.82
2023-04-14T00:13:34.792Z,16.83
2023-04-14T00:14:34.783Z,16.82
2023-04-14T00:15:34.781Z,16.82
2023-04-14T00:16:34.794Z,16.82
2023-04-14T00:17:34.846Z,16.82
2023-04-14T00:18:34.780Z,16.82
2023-04-14T00:19:34.724Z,16.82
2023-04-14T00:20:34.713Z,16.82
2023-04-14T00:21:34.702Z,16.82
2023-04-14T00:22:34.696Z,16.81
2023-04-14T00:23:34.706Z,16.81
2023-04-14T00:24:34.692Z,16.82
2023-04-14T00:25:34.675Z,16.81
2023-04-14T00:26:34.651Z,16.82
2023-04-14T00:27:34.642Z,16.82
2023-04-14T00:28:34.625Z,16.83
2023-04-14T00:29:34.649Z,16.82
2023-04-14T00:30:34.615Z,16.82
2023-04-14T00:31:34.647Z,16.82
2023-04-14T00:32:34.620Z,16.81
2023-04-14T00:33:34.591Z,16.82
2023-04-14T00:34:34.611Z,16.81
2023-04-14T00:35:34.549Z,16.81
2023-04-14T00:36:34.542Z,16.82
2023-04-14T00:37:34.527Z,16.82
2023-04-14T00:38:34.514Z,16.82
2023-04-14T00:39:34.598Z,16.82
2023-04-14T00:40:34.501Z,16.82
2023-04-14T00:41:34.484Z,16.83
2023-04-14T00:42:34.471Z,16.82
2023-04-14T00:43:34.698Z,16.82
2023-04-14T00:44:34.451Z,16.81
2023-04-14T00:45:34.446Z,16.82
2023-04-14T00:46:34.459Z,16.81
2023-04-14T00:47:34.442Z,16.82
2023-04-14T00:48:34.407Z,16.83
2023-04-14T00:49:34.418Z,16.82
2023-04-14T00:50:34.407Z,16.81
2023-04-14T00:51:34.384Z,16.82
2023-04-14T00:52:34.372Z,16.82
2023-04-14T00:53:34.464Z,16.82
2023-04-14T00:54:34.378Z,16.82
2023-04-14T00:55:34.355Z,16.81
2023-04-14T00:56:34.388Z,16.81
2023-04-14T00:57:34.314Z,16.82
2023-04-14T00:58:34.312Z,16.81
2023-04-14T00:59:34.306Z,16.81
2023-04-14T01:00:34.276Z,16.81
2023-04-14T01:01:34.314Z,16.82
2023-04-14T01:02:34.398Z,16.81
2023-04-14T01:03:34.513Z,16.82
2023-04-14T01:04:52.206Z,16.82
2023-04-14T01:05:35.224Z,16.81
2023-04-14T01:06:34.270Z,16.81
2023-04-14T01:07:34.197Z,16.82
2023-04-14T01:08:34.189Z,16.82
2023-04-14T01:09:34.261Z,16.81
2023-04-14T01:10:34.178Z,16.81
2023-04-14T01:11:34.190Z,16.82
2023-04-14T01:12:34.146Z,16.81
2023-04-14T01:13:34.194Z,16.81
2023-04-14T01:14:34.125Z,16.82
2023-04-14T01:15:34.136Z,16.81
2023-04-14T01:16:34.178Z,16.82
2023-04-14T01:17:34.138Z,16.81
2023-04-14T01:18:34.081Z,16.81
2023-04-14T01:19:34.072Z,16.81
2023-04-14T01:20:34.065Z,16.81
2023-04-14T01:21:34.052Z,16.81
2023-04-14T01:22:34.073Z,16.81
2023-04-14T01:23:34.053Z,16.81
2023-04-14T01:24:34.021Z,16.81
2023-04-14T01:25:34.009Z,16.82
2023-04-14T01:26:34.001Z,16.82
2023-04-14T01:27:34.024Z,16.81
2023-04-14T01:28:33.974Z,16.81
2023-04-14T01:29:33.970Z,16.81
2023-04-14T01:30:33.953Z,16.81
2023-04-14T01:31:34.023Z,16.81
2023-04-14T01:32:33.966Z,16.79
2023-04-14T01:33:33.923Z,16.79
2023-04-14T01:34:33.915Z,16.81
2023-04-14T01:35:33.900Z,16.79
2023-04-14T01:36:33.887Z,16.79
2023-04-14T01:37:33.916Z,16.82
2023-04-14T01:38:33.904Z,16.79
2023-04-14T01:39:33.861Z,16.81
2023-04-14T01:40:33.868Z,16.81
2023-04-14T01:41:33.854Z,16.79
2023-04-14T01:42:33.846Z,16.79
2023-04-14T01:43:33.814Z,16.81
2023-04-14T01:44:33.814Z,16.81
2023-04-14T01:45:33.826Z,16.81
2023-04-14T01:46:33.803Z,16.79
2023-04-14T01:47:33.822Z,16.81
2023-04-14T01:48:33.785Z,16.79
2023-04-14T01:49:33.791Z,16.81
2023-04-14T01:50:33.755Z,16.79
2023-04-14T01:51:33.739Z,16.79
2023-04-14T01:52:33.744Z,16.79
2023-04-14T01:53:33.702Z,16.79
2023-04-14T01:54:33.718Z,16.81
2023-04-14T01:55:33.681Z,16.79
2023-04-14T01:56:33.675Z,16.79
2023-04-14T01:57:33.662Z,16.79
2023-04-14T01:58:33.685Z,16.79
2023-04-14T01:59:33.647Z,16.78
2023-04-14T02:00:33.629Z,16.79
2023-04-14T02:01:33.697Z,16.81
2023-04-14T02:02:33.767Z,16.81
2023-04-14T02:03:33.683Z,16.79
2023-04-14T02:04:33.584Z,16.79
2023-04-14T02:05:33.606Z,16.79
2023-04-14T02:06:33.558Z,16.79
2023-04-14T02:07:33.549Z,16.79
2023-04-14T02:08:33.565Z,16.79
2023-04-14T02:09:33.531Z,16.81
2023-04-14T02:10:33.539Z,16.79
2023-04-14T02:11:33.507Z,16.79
2023-04-14T02:12:33.505Z,16.79
2023-04-14T02:13:33.515Z,16.79
2023-04-14T02:14:33.472Z,16.78
2023-04-14T02:15:33.463Z,16.79
2023-04-14T02:16:33.481Z,16.78
2023-04-14T02:17:33.486Z,16.79
2023-04-14T02:18:33.448Z,16.79
2023-04-14T02:19:33.437Z,16.79
2023-04-14T02:20:33.403Z,16.78
2023-04-14T02:21:33.401Z,16.81
2023-04-14T02:22:33.380Z,16.78
2023-04-14T02:23:33.392Z,16.79
2023-04-14T02:24:33.374Z,16.79
2023-04-14T02:25:33.376Z,16.79
2023-04-14T02:26:33.360Z,16.79
2023-04-14T02:27:33.355Z,16.79
2023-04-14T02:28:33.316Z,16.78
2023-04-14T02:29:33.330Z,16.78
2023-04-14T02:30:33.317Z,16.78
2023-04-14T02:31:33.285Z,16.78
2023-04-14T02:32:33.313Z,16.78
2023-04-14T02:33:33.261Z,16.79
2023-04-14T02:34:33.262Z,16.78
2023-04-14T02:35:33.259Z,16.79
2023-04-14T02:36:33.241Z,16.79
2023-04-14T02:37:33.216Z,16.79
2023-04-14T02:38:33.214Z,16.79
2023-04-14T02:39:33.195Z,16.79
2023-04-14T02:40:33.216Z,16.78
2023-04-14T02:41:33.175Z,16.78
2023-04-14T02:42:33.194Z,16.79
2023-04-14T02:43:33.160Z,16.78
2023-04-14T02:44:33.172Z,16.79
2023-04-14T02:45:33.129Z,16.78
2023-04-14T02:46:33.187Z,16.79
2023-04-14T02:47:33.163Z,16.78
2023-04-14T02:48:33.101Z,16.79
2023-04-14T02:49:33.107Z,16.78
2023-04-14T02:50:33.078Z,16.79
2023-04-14T02:51:33.086Z,16.79
2023-04-14T02:52:33.078Z,16.78
2023-04-14T02:53:33.045Z,16.79
2023-04-14T02:54:33.035Z,16.79
2023-04-14T02:55:33.022Z,16.78
2023-04-14T02:56:33.013Z,16.76
2023-04-14T02:57:33.029Z,16.78
2023-04-14T02:58:33.017Z,16.78
2023-04-14T02:59:32.990Z,16.79
2023-04-14T03:00:32.970Z,16.78
2023-04-14T03:01:33.087Z,16.78
2023-04-14T03:02:33.013Z,16.78
2023-04-14T03:03:32.983Z,16.76
2023-04-14T03:04:32.979Z,16.76
2023-04-14T03:05:32.927Z,16.78
2023-04-14T03:06:32.930Z,16.78
2023-04-14T03:07:32.916Z,16.78
2023-04-14T03:08:32.890Z,16.78
2023-04-14T03:09:32.897Z,16.78
2023-04-14T03:10:32.862Z,16.78
2023-04-14T03:11:32.876Z,16.78
2023-04-14T03:12:32.839Z,16.79
2023-04-14T03:13:32.832Z,16.79
2023-04-14T03:14:32.842Z,16.78
2023-04-14T03:15:32.889Z,16.78
2023-04-14T03:16:32.821Z,16.78
2023-04-14T03:17:32.852Z,16.79
2023-04-14T03:18:32.776Z,16.78
2023-04-14T03:19:32.766Z,16.78
2023-04-14T03:20:32.776Z,16.78
2023-04-14T03:21:32.747Z,16.78
2023-04-14T03:22:32.734Z,16.78
2023-04-14T03:23:32.771Z,16.78
2023-04-14T03:24:32.709Z,16.78
2023-04-14T03:25:32.705Z,16.78
2023-04-14T03:26:32.685Z,16.78
2023-04-14T03:27:32.710Z,16.78
2023-04-14T03:28:32.667Z,16.78
2023-04-14T03:29:32.651Z,16.78
2023-04-14T03:30:32.713Z,16.78
2023-04-14T03:31:32.678Z,16.78
2023-04-14T03:32:32.645Z,16.78
2023-04-14T03:33:32.634Z,16.76
2023-04-14T03:34:32.600Z,16.76
2023-04-14T03:35:32.589Z,16.78
2023-04-14T03:36:32.576Z,16.78
2023-04-14T03:37:32.572Z,16.78
2023-04-14T03:38:32.576Z,16.78
2023-04-14T03:39:32.542Z,16.78
2023-04-14T03:40:32.532Z,16.76
2023-04-14T03:41:32.521Z,16.75
2023-04-14T03:42:32.510Z,16.78
2023-04-14T03:43:32.522Z,16.76
2023-04-14T03:44:32.486Z,16.78
2023-04-14T03:45:32.488Z,16.78
2023-04-14T03:46:32.509Z,16.76
2023-04-14T03:47:32.464Z,16.78
2023-04-14T03:48:32.466Z,16.76
2023-04-14T03:49:32.440Z,16.78
2023-04-14T03:50:32.449Z,16.78
2023-04-14T03:51:32.421Z,16.76
2023-04-14T03:52:32.406Z,16.76
2023-04-14T03:53:32.391Z,16.78
2023-04-14T03:54:32.423Z,16.76
2023-04-14T03:55:32.402Z,16.76
2023-04-14T03:56:32.355Z,16.76
2023-04-14T03:57:32.369Z,16.78
2023-04-14T03:58:32.339Z,16.78
2023-04-14T03:59:32.345Z,16.78
2023-04-14T04:00:32.315Z,16.78
2023-04-14T04:01:32.304Z,16.78
2023-04-14T04:02:32.409Z,16.76
2023-04-14T04:03:32.524Z,16.76
2023-04-14T04:04:32.500Z,16.76
2023-04-14T04:05:32.259Z,16.76
2023-04-14T04:06:32.260Z,16.78
2023-04-14T04:07:32.246Z,16.76
2023-04-14T04:08:32.232Z,16.76
2023-04-14T04:09:32.237Z,16.78
2023-04-14T04:10:32.202Z,16.78
2023-04-14T04:11:32.194Z,16.76
2023-04-14T04:12:32.187Z,16.78
2023-04-14T04:13:32.178Z,16.76
2023-04-14T04:14:32.190Z,16.76
2023-04-14T04:15:32.152Z,16.76
2023-04-14T04:16:32.196Z,16.76
2023-04-14T04:17:32.157Z,16.78
2023-04-14T04:18:32.138Z,16.76
2023-04-14T04:19:32.125Z,16.76
2023-04-14T04:20:32.121Z,16.76
2023-04-14T04:21:32.084Z,16.76
2023-04-14T04:22:32.072Z,16.78
2023-04-14T04:23:32.068Z,16.76
2023-04-14T04:24:32.077Z,16.76
2023-04-14T04:25:32.077Z,16.78
2023-04-14T04:26:32.030Z,16.76
2023-04-14T04:27:32.017Z,16.76
2023-04-14T04:28:32.009Z,16.76
2023-04-14T04:29:31.995Z,16.76
2023-04-14T04:30:32.015Z,16.76
2023-04-14T04:31:32.008Z,16.75
2023-04-14T04:32:32.153Z,16.76
2023-04-14T04:33:31.949Z,16.76
2023-04-14T04:34:31.982Z,16.76
2023-04-14T04:35:31.952Z,16.76
2023-04-14T04:36:31.939Z,16.75
2023-04-14T04:37:31.910Z,16.76
2023-04-14T04:38:31.898Z,16.76
2023-04-14T04:39:31.892Z,16.75
2023-04-14T04:40:31.903Z,16.76
2023-04-14T04:41:31.865Z,16.76
2023-04-14T04:42:31.858Z,16.76
2023-04-14T04:43:31.845Z,16.75
2023-04-14T04:44:31.834Z,16.78
2023-04-14T04:45:31.843Z,16.78
2023-04-14T04:46:31.848Z,16.76
2023-04-14T04:47:31.833Z,16.76
2023-04-14T04:48:31.806Z,16.75
2023-04-14T04:49:31.777Z,16.76
2023-04-14T04:50:31.821Z,16.76
2023-04-14T04:51:31.758Z,16.76
2023-04-14T04:52:31.749Z,16.76
2023-04-14T04:53:31.746Z,16.76
2023-04-14T04:54:31.722Z,16.76
2023-04-14T04:55:31.739Z,16.75
2023-04-14T04:56:31.704Z,16.76
2023-04-14T04:57:31.725Z,16.76
2023-04-14T04:58:31.681Z,16.75
2023-04-14T04:59:31.670Z,16.76
2023-04-14T05:00:31.692Z,16.76
2023-04-14T05:01:31.747Z,16.76
2023-04-14T05:02:31.779Z,16.76
2023-04-14T05:03:31.692Z,16.76
2023-04-14T05:04:31.619Z,16.76
2023-04-14T05:05:31.606Z,16.76
2023-04-14T05:06:31.651Z,16.76
2023-04-14T05:07:31.587Z,16.78
2023-04-14T05:08:31.573Z,16.76
2023-04-14T05:09:31.568Z,16.78
2023-04-14T05:10:31.551Z,16.76
2023-04-14T05:11:31.585Z,16.75
2023-04-14T05:12:31.530Z,16.76
2023-04-14T05:13:31.528Z,16.75
2023-04-14T05:14:31.510Z,16.76
2023-04-14T05:15:31.546Z,16.76
2023-04-14T05:16:31.485Z,16.76
2023-04-14T05:17:31.561Z,16.76
2023-04-14T05:18:31.477Z,16.76
2023-04-14T05:19:31.459Z,16.76
2023-04-14T05:20:32.981Z,16.75
2023-04-14T05:21:31.460Z,16.75
2023-04-14T05:22:31.479Z,16.76
2023-04-14T05:23:31.411Z,16.76
2023-04-14T05:24:31.404Z,16.76
2023-04-14T05:25:31.395Z,16.76
2023-04-14T05:26:54.347Z,16.76
2023-04-14T05:27:32.390Z,16.76
2023-04-14T05:28:31.357Z,16.78
2023-04-14T05:29:31.345Z,16.78
2023-04-14T05:30:31.337Z,16.76
2023-04-14T05:31:31.380Z,16.76
2023-04-14T05:32:31.363Z,16.76
2023-04-14T05:33:31.306Z,16.76
2023-04-14T05:34:31.292Z,16.76
2023-04-14T05:35:31.284Z,16.76
2023-04-14T05:36:31.274Z,16.76
2023-04-14T05:37:31.292Z,16.76
2023-04-14T05:38:31.273Z,16.76
2023-04-14T05:39:31.245Z,16.78
2023-04-14T05:40:31.241Z,16.76
2023-04-14T05:41:31.221Z,16.76
2023-04-14T05:42:31.233Z,16.76
2023-04-14T05:43:31.197Z,16.78
2023-04-14T05:44:31.197Z,16.76
2023-04-14T05:45:31.196Z,16.78
2023-04-14T05:46:31.225Z,16.76
2023-04-14T05:47:31.227Z,16.76
2023-04-14T05:48:31.216Z,16.76
2023-04-14T05:49:31.162Z,16.78
2023-04-14T05:50:31.128Z,16.78
2023-04-14T05:51:31.109Z,16.78
2023-04-14T05:52:31.123Z,16.78
2023-04-14T05:53:31.093Z,16.79
2023-04-14T05:54:31.109Z,16.79
2023-04-14T05:55:31.070Z,16.79
2023-04-14T05:56:31.060Z,16.81
2023-04-14T05:57:31.045Z,16.81
2023-04-14T05:58:31.088Z,16.79
2023-04-14T05:59:31.021Z,16.79
2023-04-14T06:00:31.019Z,16.81
2023-04-14T06:01:31.037Z,16.82
2023-04-14T06:02:31.157Z,16.82
2023-04-14T06:03:31.224Z,16.82
2023-04-14T06:04:31.026Z,16.82
2023-04-14T06:05:31.007Z,16.83
2023-04-14T06:06:30.948Z,16.82
2023-04-14T06:07:30.934Z,16.83
2023-04-14T06:08:30.947Z,16.83
2023-04-14T06:09:30.912Z,16.85
2023-04-14T06:10:30.944Z,16.85
2023-04-14T06:11:30.918Z,16.86
2023-04-14T06:12:30.883Z,16.85
2023-04-14T06:13:33.038Z,16.86
2023-04-14T06:14:30.884Z,16.88
2023-04-14T06:15:30.856Z,16.88
2023-04-14T06:16:30.961Z,16.86
2023-04-14T06:17:30.853Z,16.88
2023-04-14T06:18:30.868Z,16.89
2023-04-14T06:19:30.810Z,16.89
2023-04-14T06:20:32.058Z,16.89
2023-04-14T06:21:30.803Z,16.89
2023-04-14T06:22:30.773Z,16.91
2023-04-14T06:23:30.785Z,16.94
2023-04-14T06:24:30.751Z,16.94
2023-04-14T06:25:30.780Z,16.93
2023-04-14T06:26:30.756Z,16.94
2023-04-14T06:27:30.715Z,16.94
2023-04-14T06:28:30.708Z,16.94
2023-04-14T06:29:30.707Z,16.94
2023-04-14T06:30:30.706Z,16.96
2023-04-14T06:31:30.740Z,16.96
2023-04-14T06:32:30.692Z,16.96
2023-04-14T06:33:30.677Z,16.96
2023-04-14T06:34:30.639Z,16.96
2023-04-14T06:35:33.867Z,16.96
2023-04-14T06:36:30.638Z,16.94
2023-04-14T06:37:30.611Z,16.94
2023-04-14T06:38:30.594Z,16.96
2023-04-14T06:39:30.586Z,16.94
2023-04-14T06:40:30.573Z,16.93
2023-04-14T06:41:30.594Z,16.93
2023-04-14T06:42:30.576Z,16.91
2023-04-14T06:43:30.586Z,16.93
2023-04-14T06:44:30.532Z,16.91
2023-04-14T06:45:30.545Z,16.94
2023-04-14T06:46:30.719Z,16.93
2023-04-14T06:47:30.534Z,16.97
2023-04-14T06:48:30.501Z,16.94
2023-04-14T06:49:30.482Z,16.96
2023-04-14T06:50:30.466Z,16.96
2023-04-14T06:51:30.483Z,16.97
2023-04-14T06:52:30.448Z,16.97
2023-04-14T06:53:30.434Z,16.97
2023-04-14T06:54:30.440Z,16.97
2023-04-14T06:55:30.450Z,16.98
2023-04-14T06:56:30.426Z,17.00
2023-04-14T06:57:30.421Z,17.01
2023-04-14T06:58:30.502Z,17.00
2023-04-14T06:59:30.395Z,17.01
2023-04-14T07:00:30.358Z,17.01
2023-04-14T07:01:30.452Z,17.03
2023-04-14T07:02:30.428Z,17.03
2023-04-14T07:03:30.409Z,17.03
2023-04-14T07:04:30.363Z,17.04
2023-04-14T07:05:30.325Z,17.04
2023-04-14T07:06:30.294Z,17.03
2023-04-14T07:07:30.303Z,17.04
2023-04-14T07:08:30.276Z,17.06
2023-04-14T07:09:30.317Z,17.04
2023-04-14T07:10:30.250Z,17.06
2023-04-14T07:11:30.232Z,17.04
2023-04-14T07:12:30.254Z,17.04
2023-04-14T07:13:30.228Z,17.06
2023-04-14T07:14:30.226Z,17.04
2023-04-14T07:15:30.252Z,17.06
2023-04-14T07:16:30.328Z,17.06
2023-04-14T07:17:30.242Z,17.06
2023-04-14T07:18:30.157Z,17.06
2023-04-14T07:19:30.150Z,17.03
2023-04-14T07:20:30.180Z,17.03
2023-04-14T07:21:30.126Z,17.03
2023-04-14T07:22:30.116Z,17.03
2023-04-14T07:23:30.105Z,17.01
2023-04-14T07:24:30.092Z,17.01
2023-04-14T07:25:30.099Z,17.03
2023-04-14T07:26:30.097Z,17.01
2023-04-14T07:27:30.055Z,17.03
2023-04-14T07:28:30.089Z,17.03
2023-04-14T07:29:30.035Z,17.01
2023-04-14T07:30:30.053Z,17.01
2023-04-14T07:31:30.059Z,17.03
2023-04-14T07:32:30.088Z,17.06
2023-04-14T07:33:29.993Z,17.07
2023-04-14T07:34:29.980Z,17.08
2023-04-14T07:35:29.970Z,17.11
2023-04-14T07:36:29.959Z,17.14
2023-04-14T07:37:29.961Z,17.14
2023-04-14T07:38:29.966Z,17.14
2023-04-14T07:39:29.937Z,17.14
2023-04-14T07:40:29.994Z,17.14
2023-04-14T07:41:29.922Z,17.15
2023-04-14T07:42:29.925Z,17.16
2023-04-14T07:43:29.888Z,17.14
2023-04-14T07:44:29.879Z,17.14
2023-04-14T07:45:29.868Z,17.12
2023-04-14T07:46:29.970Z,17.12
2023-04-14T07:47:29.861Z,17.12
2023-04-14T07:48:29.832Z,17.12
2023-04-14T07:49:29.824Z,17.12
2023-04-14T07:50:29.810Z,17.14
2023-04-14T07:51:29.808Z,17.15
2023-04-14T07:52:29.836Z,17.15
2023-04-14T07:53:29.786Z,17.18
2023-04-14T07:54:29.790Z,17.21
2023-04-14T07:55:29.756Z,17.22
2023-04-14T07:56:29.744Z,17.23
2023-04-14T07:57:29.735Z,17.26
2023-04-14T07:58:29.974Z,17.30
2023-04-14T07:59:29.740Z,17.34
2023-04-14T08:00:29.701Z,17.37
2023-04-14T08:01:29.689Z,17.41
2023-04-14T08:02:29.944Z,17.44
2023-04-14T08:03:29.854Z,17.52
2023-04-14T08:04:29.687Z,17.55
2023-04-14T08:05:29.715Z,17.62
2023-04-14T08:06:29.678Z,17.68
2023-04-14T08:07:29.625Z,17.70
2023-04-14T08:08:29.614Z,17.75
2023-04-14T08:09:29.630Z,17.78
2023-04-14T08:10:29.596Z,17.81
2023-04-14T08:11:29.578Z,17.87
2023-04-14T08:12:29.572Z,17.90
2023-04-14T08:13:29.564Z,17.92
2023-04-14T08:14:29.576Z,17.93
2023-04-14T08:15:29.542Z,17.95
2023-04-14T08:16:29.553Z,17.97
2023-04-14T08:17:29.529Z,17.97
2023-04-14T08:18:29.569Z,17.99
2023-04-14T08:19:29.490Z,18.00
2023-04-14T08:20:29.495Z,18.02
2023-04-14T08:21:29.490Z,18.02
2023-04-14T08:22:29.480Z,18.05
2023-04-14T08:23:29.503Z,18.05
2023-04-14T08:24:29.439Z,18.05
2023-04-14T08:25:29.429Z,18.05
2023-04-14T08:26:29.440Z,18.05
2023-04-14T08:27:29.407Z,18.10
2023-04-14T08:28:29.391Z,18.08
2023-04-14T08:29:29.408Z,18.08
2023-04-14T08:30:29.376Z,18.08
2023-04-14T08:31:29.413Z,18.10
2023-04-14T08:32:29.352Z,18.08
2023-04-14T08:33:29.342Z,18.08
2023-04-14T08:34:29.372Z,18.10
2023-04-14T08:35:36.837Z,18.10
2023-04-14T08:36:30.328Z,18.10
2023-04-14T08:37:29.305Z,18.08
2023-04-14T08:38:29.477Z,18.08
2023-04-14T08:39:29.286Z,18.08
2023-04-14T08:40:29.269Z,18.07
2023-04-14T08:41:29.446Z,18.08
2023-04-14T08:42:29.243Z,18.07
2023-04-14T08:43:29.232Z,18.05
2023-04-14T08:44:29.254Z,18.07
2023-04-14T08:45:29.271Z,18.05
2023-04-14T08:46:29.412Z,18.05
2023-04-14T08:47:29.272Z,18.07
2023-04-14T08:48:29.189Z,18.05
2023-04-14T08:49:29.171Z,18.03
2023-04-14T08:50:29.184Z,18.03
2023-04-14T08:51:29.200Z,18.05
2023-04-14T08:52:29.154Z,18.02
2023-04-14T08:53:29.198Z,18.02
2023-04-14T08:54:29.122Z,18.03
2023-04-14T08:55:29.108Z,18.02
2023-04-14T08:56:29.092Z,18.00
2023-04-14T08:57:29.083Z,18.00
2023-04-14T08:58:29.127Z,18.02
2023-04-14T08:59:29.068Z,18.02
2023-04-14T09:00:29.060Z,18.00
2023-04-14T09:01:29.097Z,18.00
2023-04-14T09:02:29.310Z,17.99
2023-04-14T09:03:29.358Z,17.97
2023-04-14T09:04:29.253Z,17.97
2023-04-14T09:05:28.996Z,18.00
2023-04-14T09:06:29.148Z,17.99
2023-04-14T09:07:30.129Z,17.99
2023-04-14T09:08:30.832Z,17.99
2023-04-14T09:09:28.954Z,17.97
2023-04-14T09:10:28.948Z,17.99
2023-04-14T09:11:28.938Z,17.97
2023-04-14T09:12:28.925Z,17.99
2023-04-14T09:13:28.941Z,17.97
2023-04-14T09:14:28.901Z,17.97
2023-04-14T09:15:29.428Z,17.96
2023-04-14T09:16:28.997Z,17.97
2023-04-14T09:17:28.916Z,17.96
2023-04-14T09:18:28.892Z,17.96
2023-04-14T09:19:28.852Z,17.95
2023-04-14T09:20:37.620Z,17.95
2023-04-14T09:21:51.688Z,17.95
2023-04-14T09:22:29.845Z,17.93
2023-04-14T09:23:28.823Z,17.93
2023-04-14T09:24:31.711Z,17.92
2023-04-14T09:25:28.796Z,17.93
2023-04-14T09:26:28.786Z,17.92
2023-04-14T09:27:28.761Z,17.92
2023-04-14T09:28:28.872Z,17.90
2023-04-14T09:29:28.746Z,17.92
2023-04-14T09:30:28.787Z,17.92
2023-04-14T09:31:28.737Z,17.90
2023-04-14T09:32:28.740Z,17.90
2023-04-14T09:33:28.706Z,17.90
2023-04-14T09:34:28.838Z,17.89
2023-04-14T09:35:28.681Z,17.89
2023-04-14T09:36:28.673Z,17.87
2023-04-14T09:37:28.658Z,17.89
2023-04-14T09:38:28.669Z,17.87
2023-04-14T09:39:28.669Z,17.86
2023-04-14T09:40:28.636Z,17.89
2023-04-14T09:41:28.607Z,17.86
2023-04-14T09:42:28.600Z,17.86
2023-04-14T09:43:28.600Z,17.86
2023-04-14T09:44:28.639Z,17.84
2023-04-14T09:45:28.565Z,17.84
2023-04-14T09:46:28.600Z,17.84
2023-04-14T09:47:28.595Z,17.82
2023-04-14T09:48:28.544Z,17.82
2023-04-14T09:49:28.663Z,17.82
2023-04-14T09:50:28.510Z,17.82
2023-04-14T09:51:29.782Z,17.81
2023-04-14T09:52:28.489Z,17.81
2023-04-14T09:53:28.480Z,17.82
2023-04-14T09:54:28.492Z,17.82
2023-04-14T09:55:28.478Z,17.81
2023-04-14T09:56:28.475Z,17.81
2023-04-14T09:57:28.449Z,17.81
2023-04-14T09:58:29.327Z,17.81
2023-04-14T09:59:28.412Z,17.79
2023-04-14T10:00:28.434Z,17.79
2023-04-14T10:01:28.448Z,17.81
2023-04-14T10:02:28.663Z,17.81
2023-04-14T10:03:28.470Z,17.78
2023-04-14T10:04:28.508Z,17.78
2023-04-14T10:05:29.026Z,17.79
2023-04-14T10:06:28.346Z,17.79
2023-04-14T10:07:28.329Z,17.78
2023-04-14T10:08:28.317Z,17.78
2023-04-14T10:09:28.304Z,17.77
2023-04-14T10:10:28.359Z,17.79
2023-04-14T10:11:28.291Z,17.79
2023-04-14T10:12:28.273Z,17.78
2023-04-14T10:13:28.433Z,17.77
2023-04-14T10:14:28.254Z,17.78
2023-04-14T10:15:28.259Z,17.78
2023-04-14T10:16:28.350Z,17.78
2023-04-14T10:17:30.293Z,17.77
2023-04-14T10:18:28.370Z,17.78
2023-04-14T10:19:28.205Z,17.77
2023-04-14T10:20:28.189Z,17.77
2023-04-14T10:21:28.205Z,17.77
2023-04-14T10:22:28.168Z,17.77
2023-04-14T10:23:28.162Z,17.77
2023-04-14T10:24:28.252Z,17.77
2023-04-14T10:25:28.163Z,17.75
2023-04-14T10:26:28.154Z,17.77
2023-04-14T10:27:29.321Z,17.75
2023-04-14T10:28:28.105Z,17.77
2023-04-14T10:29:28.100Z,17.75
2023-04-14T10:30:28.163Z,17.75
2023-04-14T10:31:28.108Z,17.75
2023-04-14T10:32:28.098Z,17.75
2023-04-14T10:33:28.058Z,17.75
2023-04-14T10:34:28.067Z,17.74
2023-04-14T10:35:28.031Z,17.74
2023-04-14T10:36:28.193Z,17.75
2023-04-14T10:37:28.016Z,17.77
2023-04-14T10:38:28.000Z,17.74
2023-04-14T10:39:27.989Z,17.75
2023-04-14T10:40:27.979Z,17.75
2023-04-14T10:41:27.988Z,17.74
2023-04-14T10:42:27.979Z,17.74
2023-04-14T10:43:27.950Z,17.74
2023-04-14T10:44:27.936Z,17.75
2023-04-14T10:45:27.927Z,17.75
2023-04-14T10:46:27.986Z,17.75
2023-04-14T10:47:27.930Z,17.74
2023-04-14T10:48:27.920Z,17.72
2023-04-14T10:49:27.878Z,17.74
2023-04-14T10:50:27.874Z,17.74
2023-04-14T10:51:27.858Z,17.74
2023-04-14T10:52:27.845Z,17.75
2023-04-14T10:53:27.867Z,17.75
2023-04-14T10:54:27.839Z,17.77
2023-04-14T10:55:27.816Z,17.74
2023-04-14T10:56:27.811Z,17.75
2023-04-14T10:57:27.849Z,17.74
2023-04-14T10:58:27.808Z,17.77
2023-04-14T10:59:27.780Z,17.77
2023-04-14T11:00:27.786Z,17.77
2023-04-14T11:01:27.835Z,17.77
2023-04-14T11:02:28.008Z,17.74
2023-04-14T11:03:28.911Z,17.74
2023-04-14T11:04:27.861Z,17.74
2023-04-14T11:05:27.737Z,17.72
2023-04-14T11:06:27.699Z,17.72
2023-04-14T11:07:27.694Z,17.71
2023-04-14T11:08:27.689Z,17.74
2023-04-14T11:09:27.668Z,17.72
2023-04-14T11:10:27.681Z,17.71
2023-04-14T11:11:27.646Z,17.71
2023-04-14T11:12:28.231Z,17.70
2023-04-14T11:13:27.627Z,17.70
2023-04-14T11:14:27.641Z,17.68
2023-04-14T11:15:27.601Z,17.70
2023-04-14T11:16:27.653Z,17.68
2023-04-14T11:17:27.659Z,17.71
2023-04-14T11:18:27.565Z,17.70
2023-04-14T11:19:27.580Z,17.68
2023-04-14T11:20:27.544Z,17.68
2023-04-14T11:21:27.535Z,17.68
2023-04-14T11:22:27.522Z,17.66
2023-04-14T11:23:27.513Z,17.66
2023-04-14T11:24:27.530Z,17.68
2023-04-14T11:25:27.499Z,17.70
2023-04-14T11:26:27.479Z,17.66
2023-04-14T11:27:27.470Z,17.68
2023-04-14T11:28:27.458Z,17.68
2023-04-14T11:29:27.505Z,17.68
2023-04-14T11:30:27.462Z,17.68
2023-04-14T11:31:27.503Z,17.70
2023-04-14T11:32:27.461Z,17.68
2023-04-14T11:33:27.408Z,17.70
2023-04-14T11:34:27.414Z,17.68
2023-04-14T11:35:27.403Z,17.66
2023-04-14T11:36:27.373Z,17.68
2023-04-14T11:37:27.371Z,17.68
2023-04-14T11:38:27.385Z,17.68
2023-04-14T11:39:27.340Z,17.68
2023-04-14T11:40:27.362Z,17.68
2023-04-14T11:41:27.315Z,17.68
2023-04-14T11:42:27.312Z,17.68
2023-04-14T11:43:27.323Z,17.70
2023-04-14T11:44:27.292Z,17.70
2023-04-14T11:45:27.324Z,17.70
2023-04-14T11:46:27.345Z,17.70
2023-04-14T11:47:27.301Z,17.72
2023-04-14T11:48:27.244Z,17.71
2023-04-14T11:49:27.232Z,17.72
2023-04-14T11:50:27.234Z,17.72
2023-04-14T11:51:27.233Z,17.72
2023-04-14T11:52:27.202Z,17.72
2023-04-14T11:53:27.196Z,17.74
2023-04-14T11:54:27.229Z,17.74
2023-04-14T11:55:27.169Z,17.75
2023-04-14T11:56:27.163Z,17.75
2023-04-14T11:57:27.149Z,17.78
2023-04-14T11:58:27.248Z,17.81
2023-04-14T11:59:27.130Z,17.82
2023-04-14T12:00:27.113Z,17.84
2023-04-14T12:01:27.108Z,17.87
2023-04-14T12:02:27.280Z,17.90
2023-04-14T12:03:27.183Z,17.92
2023-04-14T12:04:27.130Z,17.95
2023-04-14T12:05:27.113Z,17.99
2023-04-14T12:06:27.054Z,18.05
2023-04-14T12:07:27.043Z,18.05
2023-04-14T12:08:27.040Z,18.08
2023-04-14T12:09:27.043Z,18.11
2023-04-14T12:10:27.032Z,18.12
2023-04-14T12:11:26.998Z,18.18
2023-04-14T12:12:28.630Z,18.18
2023-04-14T12:13:27.269Z,18.20
2023-04-14T12:14:26.966Z,18.25
2023-04-14T12:15:26.956Z,18.27
2023-04-14T12:16:26.947Z,18.27
2023-04-14T12:17:26.989Z,18.30
2023-04-14T12:18:26.970Z,18.32
2023-04-14T12:19:26.917Z,18.33
2023-04-14T12:20:26.905Z,18.33
2023-04-14T12:21:26.894Z,18.35
2023-04-14T12:22:26.889Z,18.36
2023-04-14T12:23:26.896Z,18.35
2023-04-14T12:24:26.857Z,18.37
2023-04-14T12:25:26.847Z,18.39
2023-04-14T12:26:26.846Z,18.41
2023-04-14T12:27:26.828Z,18.41
2023-04-14T12:28:26.837Z,18.42
2023-04-14T12:29:26.804Z,18.42
2023-04-14T12:30:26.824Z,18.42
2023-04-14T12:31:26.793Z,18.41
2023-04-14T12:32:26.803Z,18.42
2023-04-14T12:33:26.764Z,18.42
2023-04-14T12:34:26.800Z,18.41
2023-04-14T12:35:26.804Z,18.42
2023-04-14T12:36:40.623Z,18.42
2023-04-14T12:37:27.734Z,18.42
2023-04-14T12:38:26.725Z,18.41
2023-04-14T12:39:26.720Z,18.42
2023-04-14T12:40:26.702Z,18.42
2023-04-14T12:41:26.672Z,18.42
2023-04-14T12:42:26.664Z,18.42
2023-04-14T12:43:26.658Z,18.45
2023-04-14T12:44:26.673Z,18.45
2023-04-14T12:45:28.077Z,18.44
2023-04-14T12:46:26.706Z,18.44
2023-04-14T12:47:26.645Z,18.44
2023-04-14T12:48:26.607Z,18.42
2023-04-14T12:49:26.618Z,18.41
2023-04-14T12:50:26.604Z,18.41
2023-04-14T12:51:26.567Z,18.39
2023-04-14T12:52:26.558Z,18.39